Mishima, Japan

3:37 PM JST on August 25, 2016 (GMT +0900)
県道132号線 | | Change Station

Elev 49 ft 35.04 °N, 138.96 °E | Updated 2 minutes ago

Mostly Cloudy
Mostly Cloudy
97.9 °F
Feels Like 115 °F
N
6.2
Wind Variable Wind from North
Gusts 21.7 mph

Today
High -- | Low -- °F
--% Chance of Precip.
Yesterday
High -- | Low -- °F
Precip. -- in
Pressure 29.74 in
Visibility 6.2 miles
Clouds Few 1500 ft
Mostly Cloudy 2000 ft
Heat Index 115 °F
Dew Point 78 °F
Humidity 53%
Rainfall 0.00 in
Snow Depth Not available.
5:11 AM 6:20 PM
Waning Gibbous, 49% visible
METAR RJTO 250600Z 26003KT 200V350 9999 FEW015 BKN020 29/24 Q1007
Pressure 29.74 in
Visibility 6.2 miles
Clouds Few 1500 ft
Mostly Cloudy 2000 ft
Heat Index 115 °F
Dew Point 78 °F
Humidity 53%
Rainfall 0.00 in
Snow Depth Not available.
5:11 AM 6:20 PM
Waning Gibbous, 49% visible
METAR RJTO 250600Z 26003KT 200V350 9999 FEW015 BKN020 29/24 Q1007

10-Day Weather Forecast

No radar image for this location.
×

Almanac

Astronomy

Aug. 25, 2016 Rise Set
Actual Time
Civil Twilight
Nautical Twilight
Astronomical Twilight
Moon
Length of Visible Light
Length of Day
Tomorrow will be .
, % of the Moon is Illuminated

Today's Extremes

Country Highs Country Lows

Community

WunderPhotos

Upload Photos

1,934,803 photos uploaded!

WunderBlog® & News

Nearby

Air Quality

  Air Quality AQ Index Pollutant
Not available.

Snow Depth

Station Depth Elevation

Earthquake Activity

City Distance Mag. Time & Date
Minimum magnitude displayed is 2.5.

Coastal Water Temperatures

Place Temperature

Stations

Nearby Weather Stations

Station Location Temp. Windchill Dew Point Humidity Wind Precip. Elev Updated Type